Terminal Aerodrome Forecast
Issued by NWS Mt. Holly, NJ

Home | Current Version | Previous Version | Text Only | Print | Product List | Glossary On
Versions: 1 2 3 4 5 6 7 8 9 10 11 12 13 14 15 16
000
FTAK31 PANC 291136
TAFABE
TAF
PABE 291136Z 2912/3012 34005KT P6SM SCT035 OVC045
     FM291500 VRB05KT P6SM SCT040 BKN050
     FM292200 24008KT P6SM SCT050 BKN070
     FM300600 20005KT P6SM SCT060 BKN100=

USA.gov is the U.S. government's official web portal to all federal, state and local government web resources and services.